sensor_id;sensor_type;location;lat;lon;timestamp;temperature;humidity
52471;DHT22;38382;53.160;7.026;2023-08-30T00:00:58;14.50;99.90
52471;DHT22;38382;53.160;7.026;2023-08-30T00:03:24;14.40;99.90
52471;DHT22;38382;53.160;7.026;2023-08-30T00:05:50;14.40;99.90
52471;DHT22;38382;53.160;7.026;2023-08-30T00:08:16;14.30;99.90
52471;DHT22;38382;53.160;7.026;2023-08-30T00:10:45;14.20;99.90
52471;DHT22;38382;53.160;7.026;2023-08-30T00:13:26;14.20;99.90
52471;DHT22;38382;53.160;7.026;2023-08-30T00:19:02;13.30;99.90
52471;DHT22;38382;53.160;7.026;2023-08-30T00:21:31;14.10;99.90
52471;DHT22;38382;53.160;7.026;2023-08-30T00:24:04;14.10;99.90
52471;DHT22;38382;53.160;7.026;2023-08-30T00:26:31;14.00;99.90
52471;DHT22;38382;53.160;7.026;2023-08-30T00:28:57;14.00;99.90
52471;DHT22;38382;53.160;7.026;2023-08-30T00:31:23;13.90;99.90
52471;DHT22;38382;53.160;7.026;2023-08-30T00:33:48;13.80;99.90
52471;DHT22;38382;53.160;7.026;2023-08-30T00:36:15;13.80;99.90
52471;DHT22;38382;53.160;7.026;2023-08-30T01:28:40;13.40;99.90
52471;DHT22;38382;53.160;7.026;2023-08-30T01:36:19;12.30;99.90
52471;DHT22;38382;53.160;7.026;2023-08-30T01:38:46;13.20;99.90
52471;DHT22;38382;53.160;7.026;2023-08-30T01:41:15;13.20;99.90
52471;DHT22;38382;53.160;7.026;2023-08-30T01:43:41;13.20;99.90
52471;DHT22;38382;53.160;7.026;2023-08-30T01:46:08;13.20;99.90
52471;DHT22;38382;53.160;7.026;2023-08-30T01:48:47;13.20;99.90
52471;DHT22;38382;53.160;7.026;2023-08-30T01:55:03;14.00;99.90
52471;DHT22;38382;53.160;7.026;2023-08-30T01:57:38;12.10;99.90
52471;DHT22;38382;53.160;7.026;2023-08-30T02:00:04;13.00;99.90
52471;DHT22;38382;53.160;7.026;2023-08-30T02:02:31;12.90;99.90
52471;DHT22;38382;53.160;7.026;2023-08-30T02:05:31;12.90;99.90
52471;DHT22;38382;53.160;7.026;2023-08-30T02:08:09;13.00;99.90
52471;DHT22;38382;53.160;7.026;2023-08-30T02:14:17;12.90;99.90
52471;DHT22;38382;53.160;7.026;2023-08-30T02:16:46;12.90;99.90
52471;DHT22;38382;53.160;7.026;2023-08-30T02:19:12;12.80;99.90
52471;DHT22;38382;53.160;7.026;2023-08-30T02:21:40;12.80;99.90
52471;DHT22;38382;53.160;7.026;2023-08-30T02:24:06;12.80;99.90
52471;DHT22;38382;53.160;7.026;2023-08-30T02:26:32;12.70;99.90
52471;DHT22;38382;53.160;7.026;2023-08-30T02:28:57;12.70;99.90
52471;DHT22;38382;53.160;7.026;2023-08-30T02:31:23;12.70;99.90
52471;DHT22;38382;53.160;7.026;2023-08-30T02:33:49;12.70;99.90
52471;DHT22;38382;53.160;7.026;2023-08-30T02:36:14;12.60;99.90
52471;DHT22;38382;53.160;7.026;2023-08-30T02:38:40;12.60;99.90
52471;DHT22;38382;53.160;7.026;2023-08-30T02:41:06;12.60;99.90
52471;DHT22;38382;53.160;7.026;2023-08-30T02:43:32;12.50;99.90
52471;DHT22;38382;53.160;7.026;2023-08-30T02:45:57;12.50;99.90
52471;DHT22;38382;53.160;7.026;2023-08-30T02:48:23;12.40;99.90
52471;DHT22;38382;53.160;7.026;2023-08-30T02:50:49;12.50;99.90
52471;DHT22;38382;53.160;7.026;2023-08-30T02:53:14;12.40;99.90
52471;DHT22;38382;53.160;7.026;2023-08-30T02:55:40;12.40;99.90
52471;DHT22;38382;53.160;7.026;2023-08-30T02:58:06;12.40;99.90
52471;DHT22;38382;53.160;7.026;2023-08-30T03:00:31;12.30;99.90
52471;DHT22;38382;53.160;7.026;2023-08-30T03:02:57;12.30;99.90
52471;DHT22;38382;53.160;7.026;2023-08-30T03:05:23;12.30;99.90
52471;DHT22;38382;53.160;7.026;2023-08-30T03:07:48;12.20;99.90
52471;DHT22;38382;53.160;7.026;2023-08-30T03:10:14;12.20;99.90
52471;DHT22;38382;53.160;7.026;2023-08-30T03:12:40;12.20;99.90
52471;DHT22;38382;53.160;7.026;2023-08-30T03:15:06;12.20;99.90
52471;DHT22;38382;53.160;7.026;2023-08-30T03:17:32;12.20;99.90
52471;DHT22;38382;53.160;7.026;2023-08-30T03:19:57;12.10;99.90
52471;DHT22;38382;53.160;7.026;2023-08-30T03:22:23;12.10;99.90
52471;DHT22;38382;53.160;7.026;2023-08-30T03:24:50;12.10;99.90
52471;DHT22;38382;53.160;7.026;2023-08-30T03:27:16;12.10;99.90
52471;DHT22;38382;53.160;7.026;2023-08-30T03:29:42;12.00;99.90
52471;DHT22;38382;53.160;7.026;2023-08-30T03:32:08;12.00;99.90
52471;DHT22;38382;53.160;7.026;2023-08-30T03:34:33;12.00;99.90
52471;DHT22;38382;53.160;7.026;2023-08-30T03:37:02;12.00;99.90
52471;DHT22;38382;53.160;7.026;2023-08-30T03:39:32;12.00;99.90
52471;DHT22;38382;53.160;7.026;2023-08-30T03:41:57;11.90;99.90
52471;DHT22;38382;53.160;7.026;2023-08-30T03:44:23;11.90;99.90
52471;DHT22;38382;53.160;7.026;2023-08-30T03:46:49;11.90;99.90
52471;DHT22;38382;53.160;7.026;2023-08-30T03:49:15;11.90;99.90
52471;DHT22;38382;53.160;7.026;2023-08-30T03:51:43;11.80;99.90
52471;DHT22;38382;53.160;7.026;2023-08-30T03:54:12;11.80;99.90
52471;DHT22;38382;53.160;7.026;2023-08-30T03:56:42;11.80;99.90
52471;DHT22;38382;53.160;7.026;2023-08-30T03:59:07;11.70;99.90
52471;DHT22;38382;53.160;7.026;2023-08-30T04:01:33;11.70;99.90
52471;DHT22;38382;53.160;7.026;2023-08-30T04:03:59;11.70;99.90
52471;DHT22;38382;53.160;7.026;2023-08-30T04:06:25;11.70;99.90
52471;DHT22;38382;53.160;7.026;2023-08-30T04:08:50;11.70;99.90
52471;DHT22;38382;53.160;7.026;2023-08-30T04:11:16;11.70;99.90
52471;DHT22;38382;53.160;7.026;2023-08-30T04:13:42;11.70;99.90
52471;DHT22;38382;53.160;7.026;2023-08-30T04:16:07;11.70;99.90
52471;DHT22;38382;53.160;7.026;2023-08-30T04:18:33;11.60;99.90
52471;DHT22;38382;53.160;7.026;2023-08-30T04:20:59;11.60;99.90
52471;DHT22;38382;53.160;7.026;2023-08-30T04:23:28;11.60;99.90
52471;DHT22;38382;53.160;7.026;2023-08-30T04:25:54;11.60;99.90
52471;DHT22;38382;53.160;7.026;2023-08-30T04:28:19;11.60;99.90
52471;DHT22;38382;53.160;7.026;2023-08-30T04:30:46;11.60;99.90
52471;DHT22;38382;53.160;7.026;2023-08-30T04:33:11;11.50;99.90
52471;DHT22;38382;53.160;7.026;2023-08-30T04:35:37;11.50;99.90
52471;DHT22;38382;53.160;7.026;2023-08-30T04:38:04;11.50;99.90
52471;DHT22;38382;53.160;7.026;2023-08-30T04:40:30;11.40;99.90
52471;DHT22;38382;53.160;7.026;2023-08-30T04:42:57;11.40;99.90
52471;DHT22;38382;53.160;7.026;2023-08-30T04:45:23;11.40;99.90
52471;DHT22;38382;53.160;7.026;2023-08-30T04:47:49;11.40;99.90
52471;DHT22;38382;53.160;7.026;2023-08-30T04:50:15;11.40;99.90
52471;DHT22;38382;53.160;7.026;2023-08-30T04:52:42;11.40;99.90
52471;DHT22;38382;53.160;7.026;2023-08-30T04:55:08;11.40;99.90
52471;DHT22;38382;53.160;7.026;2023-08-30T04:57:34;11.40;99.90
52471;DHT22;38382;53.160;7.026;2023-08-30T05:00:00;11.40;99.90
52471;DHT22;38382;53.160;7.026;2023-08-30T05:02:30;11.30;99.90
52471;DHT22;38382;53.160;7.026;2023-08-30T05:04:55;11.30;99.90
52471;DHT22;38382;53.160;7.026;2023-08-30T05:07:21;11.40;99.90
52471;DHT22;38382;53.160;7.026;2023-08-30T05:09:47;11.30;99.90
52471;DHT22;38382;53.160;7.026;2023-08-30T05:12:13;11.30;99.90
52471;DHT22;38382;53.160;7.026;2023-08-30T05:14:38;11.30;99.90
52471;DHT22;38382;53.160;7.026;2023-08-30T05:17:06;11.30;99.90
52471;DHT22;38382;53.160;7.026;2023-08-30T05:19:32;11.30;99.90
52471;DHT22;38382;53.160;7.026;2023-08-30T05:21:57;11.30;99.90
52471;DHT22;38382;53.160;7.026;2023-08-30T05:24:23;11.30;99.90
52471;DHT22;38382;53.160;7.026;2023-08-30T05:26:49;11.30;99.90
52471;DHT22;38382;53.160;7.026;2023-08-30T05:29:15;11.40;99.90
52471;DHT22;38382;53.160;7.026;2023-08-30T05:31:41;11.40;99.90
52471;DHT22;38382;53.160;7.026;2023-08-30T05:34:07;11.50;99.90
52471;DHT22;38382;53.160;7.026;2023-08-30T05:36:33;11.50;99.90
52471;DHT22;38382;53.160;7.026;2023-08-30T05:38:59;11.60;99.90
52471;DHT22;38382;53.160;7.026;2023-08-30T05:41:24;11.60;99.90
52471;DHT22;38382;53.160;7.026;2023-08-30T05:43:51;11.70;99.90
52471;DHT22;38382;53.160;7.026;2023-08-30T05:46:17;11.70;99.90
52471;DHT22;38382;53.160;7.026;2023-08-30T05:48:42;11.80;99.90
52471;DHT22;38382;53.160;7.026;2023-08-30T05:51:08;11.80;99.90
52471;DHT22;38382;53.160;7.026;2023-08-30T05:53:34;11.90;99.90
52471;DHT22;38382;53.160;7.026;2023-08-30T05:56:00;11.90;99.90
52471;DHT22;38382;53.160;7.026;2023-08-30T05:58:26;12.00;99.90
52471;DHT22;38382;53.160;7.026;2023-08-30T06:00:51;12.10;99.90
52471;DHT22;38382;53.160;7.026;2023-08-30T06:03:17;12.10;99.90
52471;DHT22;38382;53.160;7.026;2023-08-30T06:05:43;12.10;99.90
52471;DHT22;38382;53.160;7.026;2023-08-30T06:08:09;12.20;99.90
52471;DHT22;38382;53.160;7.026;2023-08-30T06:10:36;12.30;99.90
52471;DHT22;38382;53.160;7.026;2023-08-30T06:13:02;12.30;99.90
52471;DHT22;38382;53.160;7.026;2023-08-30T06:15:30;12.40;99.90
52471;DHT22;38382;53.160;7.026;2023-08-30T06:17:56;12.50;99.90
52471;DHT22;38382;53.160;7.026;2023-08-30T06:20:22;12.50;99.90
52471;DHT22;38382;53.160;7.026;2023-08-30T06:22:47;12.60;99.90
52471;DHT22;38382;53.160;7.026;2023-08-30T06:25:13;12.70;99.90
52471;DHT22;38382;53.160;7.026;2023-08-30T06:27:41;12.80;99.90
52471;DHT22;38382;53.160;7.026;2023-08-30T06:30:12;12.80;99.90
52471;DHT22;38382;53.160;7.026;2023-08-30T06:32:37;12.90;99.90
52471;DHT22;38382;53.160;7.026;2023-08-30T06:35:04;13.00;99.90
52471;DHT22;38382;53.160;7.026;2023-08-30T06:37:29;13.00;99.90
52471;DHT22;38382;53.160;7.026;2023-08-30T06:39:55;13.10;99.90
52471;DHT22;38382;53.160;7.026;2023-08-30T06:42:21;13.20;99.90
52471;DHT22;38382;53.160;7.026;2023-08-30T06:44:47;13.30;99.90
52471;DHT22;38382;53.160;7.026;2023-08-30T06:47:12;13.30;99.90
52471;DHT22;38382;53.160;7.026;2023-08-30T06:49:38;13.40;99.90
52471;DHT22;38382;53.160;7.026;2023-08-30T06:52:04;13.50;99.90
52471;DHT22;38382;53.160;7.026;2023-08-30T06:54:34;13.50;99.90
52471;DHT22;38382;53.160;7.026;2023-08-30T06:57:01;13.60;99.90
52471;DHT22;38382;53.160;7.026;2023-08-30T06:59:27;13.60;99.90
52471;DHT22;38382;53.160;7.026;2023-08-30T07:01:53;13.60;99.90
52471;DHT22;38382;53.160;7.026;2023-08-30T07:04:19;13.70;99.90
52471;DHT22;38382;53.160;7.026;2023-08-30T07:06:45;13.80;99.90
52471;DHT22;38382;53.160;7.026;2023-08-30T07:09:11;13.90;99.90
52471;DHT22;38382;53.160;7.026;2023-08-30T07:11:38;14.00;99.90
52471;DHT22;38382;53.160;7.026;2023-08-30T07:14:03;14.00;99.90
52471;DHT22;38382;53.160;7.026;2023-08-30T07:16:30;14.10;99.90
52471;DHT22;38382;53.160;7.026;2023-08-30T07:18:58;14.20;99.90
52471;DHT22;38382;53.160;7.026;2023-08-30T07:21:24;14.20;99.90
52471;DHT22;38382;53.160;7.026;2023-08-30T07:23:49;14.30;99.90
52471;DHT22;38382;53.160;7.026;2023-08-30T07:26:15;14.40;99.90
52471;DHT22;38382;53.160;7.026;2023-08-30T07:28:41;14.50;99.90
52471;DHT22;38382;53.160;7.026;2023-08-30T07:31:07;14.50;99.90
52471;DHT22;38382;53.160;7.026;2023-08-30T07:33:33;14.60;99.90
52471;DHT22;38382;53.160;7.026;2023-08-30T07:35:58;14.60;99.90
52471;DHT22;38382;53.160;7.026;2023-08-30T07:38:24;14.60;99.90
52471;DHT22;38382;53.160;7.026;2023-08-30T07:40:50;14.70;99.90
52471;DHT22;38382;53.160;7.026;2023-08-30T07:43:16;14.70;99.90
52471;DHT22;38382;53.160;7.026;2023-08-30T07:45:41;14.70;99.90
52471;DHT22;38382;53.160;7.026;2023-08-30T07:48:07;14.70;99.90
52471;DHT22;38382;53.160;7.026;2023-08-30T07:50:33;14.70;99.90
52471;DHT22;38382;53.160;7.026;2023-08-30T07:52:59;14.80;99.90
52471;DHT22;38382;53.160;7.026;2023-08-30T07:55:24;14.90;99.90
52471;DHT22;38382;53.160;7.026;2023-08-30T07:57:50;15.00;99.90
52471;DHT22;38382;53.160;7.026;2023-08-30T08:00:16;15.10;99.90
52471;DHT22;38382;53.160;7.026;2023-08-30T08:02:42;15.10;99.90
52471;DHT22;38382;53.160;7.026;2023-08-30T08:05:08;15.30;99.90
52471;DHT22;38382;53.160;7.026;2023-08-30T08:07:39;15.40;99.90
52471;DHT22;38382;53.160;7.026;2023-08-30T08:10:06;15.50;99.90
52471;DHT22;38382;53.160;7.026;2023-08-30T08:12:33;15.50;99.90
52471;DHT22;38382;53.160;7.026;2023-08-30T08:14:58;15.50;99.90
52471;DHT22;38382;53.160;7.026;2023-08-30T08:17:24;15.50;99.90
52471;DHT22;38382;53.160;7.026;2023-08-30T08:19:50;15.50;99.90
52471;DHT22;38382;53.160;7.026;2023-08-30T08:22:16;15.60;99.90
52471;DHT22;38382;53.160;7.026;2023-08-30T08:24:41;15.60;99.90
52471;DHT22;38382;53.160;7.026;2023-08-30T08:27:09;15.70;99.90
52471;DHT22;38382;53.160;7.026;2023-08-30T08:29:35;15.70;99.90
52471;DHT22;38382;53.160;7.026;2023-08-30T08:32:00;15.70;99.90
52471;DHT22;38382;53.160;7.026;2023-08-30T08:34:26;15.70;99.90
52471;DHT22;38382;53.160;7.026;2023-08-30T08:36:52;15.70;99.90
52471;DHT22;38382;53.160;7.026;2023-08-30T08:39:18;15.80;99.90
52471;DHT22;38382;53.160;7.026;2023-08-30T08:41:45;16.00;99.90
52471;DHT22;38382;53.160;7.026;2023-08-30T08:44:11;16.10;99.90
52471;DHT22;38382;53.160;7.026;2023-08-30T08:46:38;16.10;99.90
52471;DHT22;38382;53.160;7.026;2023-08-30T08:49:12;16.20;99.90
52471;DHT22;38382;53.160;7.026;2023-08-30T08:51:39;16.30;99.90
52471;DHT22;38382;53.160;7.026;2023-08-30T08:54:05;16.20;99.90
52471;DHT22;38382;53.160;7.026;2023-08-30T08:56:32;16.30;99.90
52471;DHT22;38382;53.160;7.026;2023-08-30T08:58:59;16.30;99.90
52471;DHT22;38382;53.160;7.026;2023-08-30T09:01:25;16.40;99.90
52471;DHT22;38382;53.160;7.026;2023-08-30T09:03:51;16.50;99.90
52471;DHT22;38382;53.160;7.026;2023-08-30T09:06:18;16.50;99.90
52471;DHT22;38382;53.160;7.026;2023-08-30T09:08:43;16.70;99.90
52471;DHT22;38382;53.160;7.026;2023-08-30T09:11:09;16.80;99.90
52471;DHT22;38382;53.160;7.026;2023-08-30T09:13:35;17.00;99.90
52471;DHT22;38382;53.160;7.026;2023-08-30T09:16:01;17.20;99.90
52471;DHT22;38382;53.160;7.026;2023-08-30T09:18:28;17.30;99.90
52471;DHT22;38382;53.160;7.026;2023-08-30T09:21:10;17.50;99.90
52471;DHT22;38382;53.160;7.026;2023-08-30T09:23:37;17.60;99.90
52471;DHT22;38382;53.160;7.026;2023-08-30T09:26:04;17.80;99.90
52471;DHT22;38382;53.160;7.026;2023-08-30T09:28:30;17.90;99.90
52471;DHT22;38382;53.160;7.026;2023-08-30T09:30:58;18.00;99.90
52471;DHT22;38382;53.160;7.026;2023-08-30T09:33:32;18.00;99.90
52471;DHT22;38382;53.160;7.026;2023-08-30T09:35:59;18.10;99.90
52471;DHT22;38382;53.160;7.026;2023-08-30T09:38:25;18.20;99.90
52471;DHT22;38382;53.160;7.026;2023-08-30T09:40:52;18.20;99.90
52471;DHT22;38382;53.160;7.026;2023-08-30T09:43:19;18.20;99.90
52471;DHT22;38382;53.160;7.026;2023-08-30T09:45:48;18.10;99.90
52471;DHT22;38382;53.160;7.026;2023-08-30T09:48:14;18.10;99.90
52471;DHT22;38382;53.160;7.026;2023-08-30T09:50:42;18.00;99.90
52471;DHT22;38382;53.160;7.026;2023-08-30T09:53:11;18.00;99.90
52471;DHT22;38382;53.160;7.026;2023-08-30T09:55:40;18.00;99.90
52471;DHT22;38382;53.160;7.026;2023-08-30T09:58:06;18.00;99.90
52471;DHT22;38382;53.160;7.026;2023-08-30T10:00:33;17.90;99.90
52471;DHT22;38382;53.160;7.026;2023-08-30T10:03:02;17.90;99.90
52471;DHT22;38382;53.160;7.026;2023-08-30T10:05:29;17.90;99.90
52471;DHT22;38382;53.160;7.026;2023-08-30T10:07:56;17.70;99.90
52471;DHT22;38382;53.160;7.026;2023-08-30T10:10:23;17.60;99.90
52471;DHT22;38382;53.160;7.026;2023-08-30T10:12:53;17.50;99.90
52471;DHT22;38382;53.160;7.026;2023-08-30T10:15:21;17.40;99.90
52471;DHT22;38382;53.160;7.026;2023-08-30T10:17:52;17.40;99.90
52471;DHT22;38382;53.160;7.026;2023-08-30T10:20:19;17.20;99.90
52471;DHT22;38382;53.160;7.026;2023-08-30T10:22:46;17.10;99.90
52471;DHT22;38382;53.160;7.026;2023-08-30T10:25:18;17.00;99.90
52471;DHT22;38382;53.160;7.026;2023-08-30T10:27:47;16.90;99.90
52471;DHT22;38382;53.160;7.026;2023-08-30T10:30:15;16.90;99.90
52471;DHT22;38382;53.160;7.026;2023-08-30T10:32:43;16.90;99.90
52471;DHT22;38382;53.160;7.026;2023-08-30T10:35:13;16.80;99.90
52471;DHT22;38382;53.160;7.026;2023-08-30T10:37:39;16.70;99.90
52471;DHT22;38382;53.160;7.026;2023-08-30T10:40:06;16.60;99.90
52471;DHT22;38382;53.160;7.026;2023-08-30T10:42:33;16.60;99.90
52471;DHT22;38382;53.160;7.026;2023-08-30T10:45:05;16.40;99.90
52471;DHT22;38382;53.160;7.026;2023-08-30T10:47:33;16.50;99.90
52471;DHT22;38382;53.160;7.026;2023-08-30T10:50:05;16.50;99.90
52471;DHT22;38382;53.160;7.026;2023-08-30T10:52:31;16.50;99.90
52471;DHT22;38382;53.160;7.026;2023-08-30T10:57:34;16.90;99.90
52471;DHT22;38382;53.160;7.026;2023-08-30T11:00:11;17.10;99.90
52471;DHT22;38382;53.160;7.026;2023-08-30T11:02:42;17.20;99.90
52471;DHT22;38382;53.160;7.026;2023-08-30T11:05:09;17.40;99.90
52471;DHT22;38382;53.160;7.026;2023-08-30T11:07:35;17.50;99.90
52471;DHT22;38382;53.160;7.026;2023-08-30T11:10:01;17.60;99.90
52471;DHT22;38382;53.160;7.026;2023-08-30T11:12:26;17.70;99.90
52471;DHT22;38382;53.160;7.026;2023-08-30T11:14:53;17.70;99.90
52471;DHT22;38382;53.160;7.026;2023-08-30T11:17:20;17.70;99.90
52471;DHT22;38382;53.160;7.026;2023-08-30T11:19:49;17.70;99.90
52471;DHT22;38382;53.160;7.026;2023-08-30T11:22:15;17.70;99.90
52471;DHT22;38382;53.160;7.026;2023-08-30T11:24:42;17.70;99.90
52471;DHT22;38382;53.160;7.026;2023-08-30T11:27:09;17.70;99.90
52471;DHT22;38382;53.160;7.026;2023-08-30T11:29:35;17.70;99.90
52471;DHT22;38382;53.160;7.026;2023-08-30T11:32:01;17.70;99.90
52471;DHT22;38382;53.160;7.026;2023-08-30T11:34:27;17.70;99.90
52471;DHT22;38382;53.160;7.026;2023-08-30T11:36:52;17.80;99.90
52471;DHT22;38382;53.160;7.026;2023-08-30T11:39:19;17.90;99.90
52471;DHT22;38382;53.160;7.026;2023-08-30T11:41:46;17.90;99.90
52471;DHT22;38382;53.160;7.026;2023-08-30T11:44:12;18.00;99.90
52471;DHT22;38382;53.160;7.026;2023-08-30T11:46:38;18.00;99.90
52471;DHT22;38382;53.160;7.026;2023-08-30T11:49:04;18.00;99.90
52471;DHT22;38382;53.160;7.026;2023-08-30T11:51:30;18.00;99.90
52471;DHT22;38382;53.160;7.026;2023-08-30T11:53:57;17.90;99.90
52471;DHT22;38382;53.160;7.026;2023-08-30T11:56:23;17.70;99.90
52471;DHT22;38382;53.160;7.026;2023-08-30T11:58:49;17.60;99.90
52471;DHT22;38382;53.160;7.026;2023-08-30T12:01:18;17.40;99.90
52471;DHT22;38382;53.160;7.026;2023-08-30T12:03:44;17.40;99.90
52471;DHT22;38382;53.160;7.026;2023-08-30T12:06:16;17.20;99.90
52471;DHT22;38382;53.160;7.026;2023-08-30T12:08:42;17.10;99.90
52471;DHT22;38382;53.160;7.026;2023-08-30T12:11:18;16.60;99.90
52471;DHT22;38382;53.160;7.026;2023-08-30T12:13:45;16.80;99.90
52471;DHT22;38382;53.160;7.026;2023-08-30T12:16:16;16.80;99.90
52471;DHT22;38382;53.160;7.026;2023-08-30T12:18:43;16.70;99.90
52471;DHT22;38382;53.160;7.026;2023-08-30T12:21:09;16.60;99.90
52471;DHT22;38382;53.160;7.026;2023-08-30T12:23:35;16.60;99.90
52471;DHT22;38382;53.160;7.026;2023-08-30T12:26:02;16.50;99.90
52471;DHT22;38382;53.160;7.026;2023-08-30T12:28:31;16.40;99.90
52471;DHT22;38382;53.160;7.026;2023-08-30T12:30:58;16.40;99.90
52471;DHT22;38382;53.160;7.026;2023-08-30T12:33:24;16.30;99.90
52471;DHT22;38382;53.160;7.026;2023-08-30T12:35:57;16.30;99.90
52471;DHT22;38382;53.160;7.026;2023-08-30T12:38:23;16.30;99.90
52471;DHT22;38382;53.160;7.026;2023-08-30T12:40:51;16.20;99.90
52471;DHT22;38382;53.160;7.026;2023-08-30T12:43:17;16.20;99.90
52471;DHT22;38382;53.160;7.026;2023-08-30T12:45:44;16.10;99.90
52471;DHT22;38382;53.160;7.026;2023-08-30T12:48:11;16.10;99.90
52471;DHT22;38382;53.160;7.026;2023-08-30T12:50:38;16.10;99.90
52471;DHT22;38382;53.160;7.026;2023-08-30T12:53:05;16.10;99.90
52471;DHT22;38382;53.160;7.026;2023-08-30T12:55:31;16.10;99.90
52471;DHT22;38382;53.160;7.026;2023-08-30T12:57:57;16.00;99.90
52471;DHT22;38382;53.160;7.026;2023-08-30T13:00:24;16.00;99.90
52471;DHT22;38382;53.160;7.026;2023-08-30T13:02:50;15.90;99.90
52471;DHT22;38382;53.160;7.026;2023-08-30T13:05:16;16.00;99.90
52471;DHT22;38382;53.160;7.026;2023-08-30T13:07:42;15.90;99.90
52471;DHT22;38382;53.160;7.026;2023-08-30T13:10:09;15.90;99.90
52471;DHT22;38382;53.160;7.026;2023-08-30T13:12:35;15.90;99.90
52471;DHT22;38382;53.160;7.026;2023-08-30T13:15:02;15.90;99.90
52471;DHT22;38382;53.160;7.026;2023-08-30T13:17:27;15.90;99.90
52471;DHT22;38382;53.160;7.026;2023-08-30T13:19:53;15.90;99.90
52471;DHT22;38382;53.160;7.026;2023-08-30T13:22:19;15.90;99.90
52471;DHT22;38382;53.160;7.026;2023-08-30T13:24:45;15.90;99.90
52471;DHT22;38382;53.160;7.026;2023-08-30T13:27:13;15.90;99.90
52471;DHT22;38382;53.160;7.026;2023-08-30T13:29:38;16.10;99.90
52471;DHT22;38382;53.160;7.026;2023-08-30T13:32:04;16.10;99.90
52471;DHT22;38382;53.160;7.026;2023-08-30T13:34:30;16.20;99.90
52471;DHT22;38382;53.160;7.026;2023-08-30T13:36:56;16.10;99.90
52471;DHT22;38382;53.160;7.026;2023-08-30T13:39:22;16.10;99.90
52471;DHT22;38382;53.160;7.026;2023-08-30T13:41:48;16.00;99.90
52471;DHT22;38382;53.160;7.026;2023-08-30T13:44:14;16.00;99.90
52471;DHT22;38382;53.160;7.026;2023-08-30T13:46:41;15.90;99.90
52471;DHT22;38382;53.160;7.026;2023-08-30T13:49:09;16.00;99.90
52471;DHT22;38382;53.160;7.026;2023-08-30T13:51:35;16.00;99.90
52471;DHT22;38382;53.160;7.026;2023-08-30T13:54:01;16.10;99.90
52471;DHT22;38382;53.160;7.026;2023-08-30T13:56:27;16.10;99.90
52471;DHT22;38382;53.160;7.026;2023-08-30T13:58:55;16.10;99.90
52471;DHT22;38382;53.160;7.026;2023-08-30T14:01:21;16.10;99.90
52471;DHT22;38382;53.160;7.026;2023-08-30T14:03:46;16.20;99.90
52471;DHT22;38382;53.160;7.026;2023-08-30T14:06:12;16.20;99.90
52471;DHT22;38382;53.160;7.026;2023-08-30T14:08:46;16.20;99.90
52471;DHT22;38382;53.160;7.026;2023-08-30T14:11:12;16.30;99.90
52471;DHT22;38382;53.160;7.026;2023-08-30T14:13:39;16.40;99.90
52471;DHT22;38382;53.160;7.026;2023-08-30T14:16:04;16.50;99.90
52471;DHT22;38382;53.160;7.026;2023-08-30T14:18:30;16.70;99.90
52471;DHT22;38382;53.160;7.026;2023-08-30T14:20:57;16.80;99.90
52471;DHT22;38382;53.160;7.026;2023-08-30T14:23:30;17.00;99.90
52471;DHT22;38382;53.160;7.026;2023-08-30T14:26:03;17.20;99.90
52471;DHT22;38382;53.160;7.026;2023-08-30T14:28:34;17.20;99.90
52471;DHT22;38382;53.160;7.026;2023-08-30T14:31:03;17.20;99.90
52471;DHT22;38382;53.160;7.026;2023-08-30T14:33:30;17.00;99.90
52471;DHT22;38382;53.160;7.026;2023-08-30T14:35:58;16.90;99.90
52471;DHT22;38382;53.160;7.026;2023-08-30T14:45:45;16.60;99.90
52471;DHT22;38382;53.160;7.026;2023-08-30T14:59:34;15.60;99.90
52471;DHT22;38382;53.160;7.026;2023-08-30T15:02:44;16.30;99.90
52471;DHT22;38382;53.160;7.026;2023-08-30T15:12:23;15.30;99.90
52471;DHT22;38382;53.160;7.026;2023-08-30T15:15:25;15.00;99.90
52471;DHT22;38382;53.160;7.026;2023-08-30T15:18:05;14.30;99.90
52471;DHT22;38382;53.160;7.026;2023-08-30T15:24:41;14.40;99.90
52471;DHT22;38382;53.160;7.026;2023-08-30T15:27:07;15.00;99.90
52471;DHT22;38382;53.160;7.026;2023-08-30T15:29:40;15.10;99.90
52471;DHT22;38382;53.160;7.026;2023-08-30T15:32:06;15.20;99.90
52471;DHT22;38382;53.160;7.026;2023-08-30T15:34:32;15.20;99.90
52471;DHT22;38382;53.160;7.026;2023-08-30T15:36:57;15.30;99.90
52471;DHT22;38382;53.160;7.026;2023-08-30T15:39:23;15.40;99.90
52471;DHT22;38382;53.160;7.026;2023-08-30T15:41:49;15.50;99.90
52471;DHT22;38382;53.160;7.026;2023-08-30T15:44:14;15.60;99.90
52471;DHT22;38382;53.160;7.026;2023-08-30T15:46:40;15.70;99.90
52471;DHT22;38382;53.160;7.026;2023-08-30T15:49:06;15.90;99.90
52471;DHT22;38382;53.160;7.026;2023-08-30T15:51:32;15.90;99.90
52471;DHT22;38382;53.160;7.026;2023-08-30T15:53:58;15.90;99.90
52471;DHT22;38382;53.160;7.026;2023-08-30T15:56:23;16.00;99.90
52471;DHT22;38382;53.160;7.026;2023-08-30T15:58:50;16.10;99.90
52471;DHT22;38382;53.160;7.026;2023-08-30T16:01:15;16.10;99.90
52471;DHT22;38382;53.160;7.026;2023-08-30T16:03:43;16.00;99.90
52471;DHT22;38382;53.160;7.026;2023-08-30T16:06:08;16.10;99.90
52471;DHT22;38382;53.160;7.026;2023-08-30T16:08:34;16.00;99.90
52471;DHT22;38382;53.160;7.026;2023-08-30T16:11:00;16.20;99.90
52471;DHT22;38382;53.160;7.026;2023-08-30T16:13:26;16.40;99.90
52471;DHT22;38382;53.160;7.026;2023-08-30T16:15:52;16.50;99.90
52471;DHT22;38382;53.160;7.026;2023-08-30T16:18:18;16.50;99.90
52471;DHT22;38382;53.160;7.026;2023-08-30T16:20:44;16.50;99.90
52471;DHT22;38382;53.160;7.026;2023-08-30T16:23:10;16.40;99.90
52471;DHT22;38382;53.160;7.026;2023-08-30T16:25:36;16.30;99.90
52471;DHT22;38382;53.160;7.026;2023-08-30T16:28:02;16.30;99.90
52471;DHT22;38382;53.160;7.026;2023-08-30T16:30:28;16.30;99.90
52471;DHT22;38382;53.160;7.026;2023-08-30T16:32:55;16.30;99.90
52471;DHT22;38382;53.160;7.026;2023-08-30T16:35:21;16.20;99.90
52471;DHT22;38382;53.160;7.026;2023-08-30T16:37:47;16.20;99.90
52471;DHT22;38382;53.160;7.026;2023-08-30T16:40:13;16.30;99.90
52471;DHT22;38382;53.160;7.026;2023-08-30T16:42:39;16.30;99.90
52471;DHT22;38382;53.160;7.026;2023-08-30T16:45:05;16.20;99.90
52471;DHT22;38382;53.160;7.026;2023-08-30T16:47:31;16.20;99.90
52471;DHT22;38382;53.160;7.026;2023-08-30T16:49:57;16.20;99.90
52471;DHT22;38382;53.160;7.026;2023-08-30T16:52:22;16.20;99.90
52471;DHT22;38382;53.160;7.026;2023-08-30T16:54:48;16.20;99.90
52471;DHT22;38382;53.160;7.026;2023-08-30T16:57:14;16.20;99.90
52471;DHT22;38382;53.160;7.026;2023-08-30T16:59:40;16.20;99.90
52471;DHT22;38382;53.160;7.026;2023-08-30T17:02:06;16.10;99.90
52471;DHT22;38382;53.160;7.026;2023-08-30T17:04:32;16.20;99.90
52471;DHT22;38382;53.160;7.026;2023-08-30T17:06:57;16.10;99.90